createdAt,value
2022-09-07T00:01:48.602Z,12.54
2022-09-07T00:04:30.822Z,12.52
2022-09-07T00:07:12.776Z,12.50
2022-09-07T00:09:54.666Z,12.48
2022-09-07T00:12:36.516Z,12.46
2022-09-07T00:15:19.481Z,12.44
2022-09-07T00:18:01.378Z,12.41
2022-09-07T00:20:43.682Z,12.39
2022-09-07T00:23:25.680Z,12.36
2022-09-07T00:26:10.998Z,12.33
2022-09-07T00:28:53.568Z,12.31
2022-09-07T00:31:35.807Z,12.29
2022-09-07T00:34:17.875Z,12.29
2022-09-07T00:36:59.767Z,12.29
2022-09-07T00:39:41.803Z,12.28
2022-09-07T00:42:24.071Z,12.26
2022-09-07T00:45:08.386Z,12.23
2022-09-07T00:48:01.479Z,12.20
2022-09-07T00:50:58.532Z,12.18
2022-09-07T00:53:46.469Z,12.16
2022-09-07T00:56:32.975Z,12.15
2022-09-07T00:59:19.477Z,12.12
2022-09-07T01:02:02.889Z,12.10
2022-09-07T01:04:48.100Z,12.07
2022-09-07T01:07:30.080Z,12.03
2022-09-07T01:10:12.179Z,12.01
2022-09-07T01:12:54.179Z,11.98
2022-09-07T01:15:56.790Z,11.96
2022-09-07T01:19:37.943Z,11.93
2022-09-07T01:22:44.727Z,11.89
2022-09-07T01:25:44.949Z,11.87
2022-09-07T01:28:33.871Z,11.85
2022-09-07T01:31:28.969Z,11.83
2022-09-07T01:34:26.301Z,11.79
2022-09-07T01:37:21.684Z,11.76
2022-09-07T01:40:09.587Z,11.74
2022-09-07T01:42:56.398Z,11.74
2022-09-07T01:45:42.263Z,11.72
2022-09-07T01:48:26.637Z,11.70
2022-09-07T01:51:08.775Z,11.67
2022-09-07T01:53:56.650Z,11.65
2022-09-07T01:56:42.718Z,11.61
2022-09-07T01:59:30.667Z,11.57
2022-09-07T02:02:21.098Z,11.54
2022-09-07T02:05:21.363Z,11.52
2022-09-07T02:08:15.138Z,11.48
2022-09-07T02:11:04.878Z,11.44
2022-09-07T02:13:56.953Z,11.43
2022-09-07T02:16:47.859Z,11.42
2022-09-07T02:19:38.179Z,11.40
2022-09-07T02:22:25.473Z,11.39
2022-09-07T02:25:09.266Z,11.37
2022-09-07T02:27:57.560Z,11.32
2022-09-07T02:30:40.006Z,11.27
2022-09-07T02:33:22.375Z,11.24
2022-09-07T02:36:06.031Z,11.22
2022-09-07T02:38:47.969Z,11.19
2022-09-07T02:41:42.133Z,11.16
2022-09-07T02:44:31.629Z,11.11
2022-09-07T02:47:16.481Z,11.09
2022-09-07T02:50:04.617Z,11.07
2022-09-07T02:53:06.132Z,11.05
2022-09-07T02:56:24.171Z,11.01
2022-09-07T02:59:26.241Z,10.98
2022-09-07T03:02:23.902Z,10.96
2022-09-07T03:05:24.028Z,10.93
2022-09-07T03:08:14.833Z,10.90
2022-09-07T03:10:58.879Z,10.86
2022-09-07T03:13:40.878Z,10.83
2022-09-07T03:16:22.812Z,10.80
2022-09-07T03:19:05.021Z,10.78
2022-09-07T03:21:48.102Z,10.76
2022-09-07T03:24:30.206Z,10.74
2022-09-07T03:27:13.225Z,10.73
2022-09-07T03:29:55.118Z,10.73
2022-09-07T03:32:38.959Z,10.72
2022-09-07T03:35:21.060Z,10.72
2022-09-07T03:38:03.264Z,10.72
2022-09-07T03:40:45.264Z,10.70
2022-09-07T03:43:28.491Z,10.65
2022-09-07T03:46:10.840Z,10.64
2022-09-07T03:48:54.123Z,10.63
2022-09-07T03:51:36.019Z,10.62
2022-09-07T03:54:17.914Z,10.60
2022-09-07T03:57:00.018Z,10.60
2022-09-07T03:59:41.911Z,10.60
2022-09-07T04:02:24.071Z,10.61
2022-09-07T04:05:06.318Z,10.62
2022-09-07T04:07:48.934Z,10.61
2022-09-07T04:10:31.439Z,10.58
2022-09-07T04:13:13.438Z,10.57
2022-09-07T04:15:56.104Z,10.56
2022-09-07T04:18:38.605Z,10.55
2022-09-07T04:21:23.679Z,10.64
2022-09-07T04:24:05.833Z,10.79
2022-09-07T04:26:47.728Z,10.96
2022-09-07T04:29:31.161Z,11.07
2022-09-07T04:32:15.973Z,11.14
2022-09-07T04:34:58.023Z,11.12
2022-09-07T04:37:40.126Z,11.04
2022-09-07T04:40:21.918Z,10.94
2022-09-07T04:43:06.128Z,10.87
2022-09-07T04:45:48.274Z,10.78
2022-09-07T04:48:30.334Z,10.70
2022-09-07T04:51:12.368Z,10.65
2022-09-07T04:53:56.224Z,10.61
2022-09-07T04:56:38.513Z,10.59
2022-09-07T04:59:20.366Z,10.57
2022-09-07T05:02:02.249Z,10.56
2022-09-07T05:04:44.508Z,10.55
2022-09-07T05:07:27.121Z,10.57
2022-09-07T05:10:09.163Z,10.58
2022-09-07T05:12:52.653Z,10.58
2022-09-07T05:15:34.493Z,10.59
2022-09-07T05:18:16.772Z,10.63
2022-09-07T05:21:11.151Z,10.70
2022-09-07T05:23:54.906Z,10.78
2022-09-07T05:26:38.624Z,10.86
2022-09-07T05:32:23.094Z,11.05
2022-09-07T05:35:05.297Z,11.15
2022-09-07T05:37:51.084Z,11.26
2022-09-07T05:40:37.241Z,11.37
2022-09-07T05:43:22.506Z,11.48
2022-09-07T05:46:04.382Z,11.58
2022-09-07T05:48:46.562Z,11.67
2022-09-07T05:51:28.603Z,11.76
2022-09-07T05:54:12.222Z,11.85
2022-09-07T05:56:54.492Z,11.95
2022-09-07T05:59:36.388Z,12.05
2022-09-07T06:02:18.419Z,12.15
2022-09-07T06:05:00.486Z,12.25
2022-09-07T06:07:42.223Z,12.37
2022-09-07T06:13:40.761Z,12.56
2022-09-07T06:16:23.053Z,12.66
2022-09-07T06:19:08.499Z,12.78
2022-09-07T06:21:50.362Z,12.94
2022-09-07T06:24:32.363Z,13.09
2022-09-07T06:27:14.256Z,13.27
2022-09-07T06:29:56.151Z,13.44
2022-09-07T06:35:24.555Z,13.79
2022-09-07T06:38:06.550Z,14.00
2022-09-07T06:40:48.783Z,14.21
2022-09-07T06:43:31.241Z,14.44
2022-09-07T06:49:16.148Z,14.83
2022-09-07T06:51:58.003Z,15.01
2022-09-07T06:57:41.906Z,15.34
2022-09-07T07:00:24.021Z,15.50
2022-09-07T07:03:06.995Z,15.62
2022-09-07T07:05:53.491Z,15.74
2022-09-07T07:08:36.395Z,15.84
2022-09-07T07:11:18.348Z,16.02
2022-09-07T07:14:00.858Z,16.26
2022-09-07T07:16:42.925Z,16.50
2022-09-07T07:19:24.859Z,16.67
2022-09-07T07:25:08.614Z,17.02
2022-09-07T07:27:50.763Z,17.17
2022-09-07T07:30:32.814Z,17.27
2022-09-07T07:33:14.740Z,17.39
2022-09-07T07:36:09.815Z,17.52
2022-09-07T07:39:01.443Z,17.70
2022-09-07T07:42:03.032Z,17.88
2022-09-07T07:44:45.323Z,18.05
2022-09-07T07:47:27.096Z,18.26
2022-09-07T07:56:14.738Z,18.88
2022-09-07T07:58:56.559Z,19.12
2022-09-07T08:01:38.437Z,19.28
2022-09-07T08:04:20.658Z,19.36
2022-09-07T08:07:08.702Z,19.26
2022-09-07T08:09:52.745Z,19.23
2022-09-07T08:12:34.536Z,19.31
2022-09-07T08:15:16.331Z,19.45
2022-09-07T08:17:58.124Z,19.61
2022-09-07T08:20:40.838Z,19.76
2022-09-07T08:23:22.733Z,19.93
2022-09-07T08:26:05.653Z,20.13
2022-09-07T08:28:48.575Z,20.32
2022-09-07T08:31:30.316Z,20.44
2022-09-07T08:34:12.161Z,20.53
2022-09-07T08:36:55.088Z,20.69
2022-09-07T08:39:36.937Z,20.84
2022-09-07T08:42:38.178Z,20.90
2022-09-07T08:45:41.687Z,21.06
2022-09-07T08:48:32.288Z,21.25
2022-09-07T08:51:24.384Z,21.43
2022-09-07T08:54:06.568Z,21.66
2022-09-07T09:00:02.714Z,21.92
2022-09-07T09:02:45.719Z,21.95
2022-09-07T09:05:37.728Z,21.84
2022-09-07T09:08:47.174Z,21.61
2022-09-07T09:12:02.078Z,21.50
2022-09-07T09:15:14.284Z,21.42
2022-09-07T09:18:13.942Z,21.40
2022-09-07T09:20:57.737Z,21.27
2022-09-07T09:23:44.863Z,21.26
2022-09-07T09:26:28.904Z,21.14
2022-09-07T09:29:23.698Z,21.08
2022-09-07T09:32:33.431Z,20.99
2022-09-07T09:35:38.078Z,20.93
2022-09-07T09:38:40.736Z,21.09
2022-09-07T09:41:22.554Z,21.51
2022-09-07T09:44:04.346Z,21.83
2022-09-07T09:50:00.129Z,21.77
2022-09-07T09:52:51.589Z,21.76
2022-09-07T09:55:37.432Z,21.69
2022-09-07T10:04:45.655Z,21.64
2022-09-07T10:07:30.196Z,21.72
2022-09-07T10:10:16.925Z,21.77
2022-09-07T10:12:59.527Z,21.76
2022-09-07T10:15:41.823Z,21.84
2022-09-07T10:18:41.341Z,22.00
2022-09-07T10:21:24.774Z,22.20
2022-09-07T10:24:06.569Z,22.44
2022-09-07T10:26:48.873Z,22.49
2022-09-07T10:29:36.039Z,22.58
2022-09-07T10:32:31.156Z,22.56
2022-09-07T10:35:20.877Z,22.67
2022-09-07T10:38:19.530Z,22.69
2022-09-07T10:41:11.355Z,22.65
2022-09-07T10:43:53.494Z,22.58
2022-09-07T10:46:57.301Z,22.47
2022-09-07T10:52:59.393Z,22.65
2022-09-07T10:55:48.700Z,22.76
2022-09-07T10:59:03.862Z,22.75
2022-09-07T11:02:12.905Z,22.68
2022-09-07T11:05:38.177Z,22.68
2022-09-07T11:12:03.575Z,22.76
2022-09-07T11:14:54.277Z,22.80
2022-09-07T11:17:52.578Z,22.83
2022-09-07T11:20:45.454Z,22.88
2022-09-07T11:23:41.766Z,22.92
2022-09-07T11:26:30.515Z,23.00
2022-09-07T11:29:31.874Z,22.94
2022-09-07T11:32:22.291Z,22.86
2022-09-07T11:35:19.753Z,22.95
2022-09-07T11:38:13.731Z,22.92
2022-09-07T11:41:06.484Z,22.76
2022-09-07T11:44:04.557Z,22.68
2022-09-07T11:46:50.859Z,22.60
2022-09-07T11:49:32.751Z,22.57
2022-09-07T11:52:40.759Z,22.65
2022-09-07T11:55:29.617Z,22.71
2022-09-07T11:58:36.462Z,22.74
2022-09-07T12:01:45.531Z,22.79
2022-09-07T12:04:40.175Z,22.87
2022-09-07T12:07:48.861Z,22.92
2022-09-07T12:10:51.840Z,22.92
2022-09-07T12:13:51.964Z,22.95
2022-09-07T12:16:52.804Z,22.95
2022-09-07T12:19:34.903Z,22.92
2022-09-07T12:22:22.174Z,22.90
2022-09-07T12:25:09.614Z,22.86
2022-09-07T12:27:52.673Z,22.87
2022-09-07T12:30:34.366Z,22.88
2022-09-07T12:33:22.382Z,22.87
2022-09-07T12:36:27.339Z,22.86
2022-09-07T12:39:30.863Z,22.83
2022-09-07T12:45:30.580Z,22.81
2022-09-07T12:48:15.042Z,22.80
2022-09-07T12:55:23.455Z,22.74
2022-09-07T12:58:17.219Z,22.64
2022-09-07T13:01:08.355Z,22.60
2022-09-07T13:04:18.009Z,22.61
2022-09-07T13:07:31.751Z,22.59
2022-09-07T13:10:32.898Z,22.56
2022-09-07T13:13:14.917Z,22.59
2022-09-07T13:16:05.844Z,22.56
2022-09-07T13:18:47.904Z,22.55
2022-09-07T13:21:33.486Z,22.52
2022-09-07T13:27:27.588Z,22.49
2022-09-07T13:30:15.628Z,22.46
2022-09-07T13:33:27.808Z,22.42
2022-09-07T13:36:45.967Z,22.39
2022-09-07T13:39:31.414Z,22.40
2022-09-07T13:42:30.082Z,22.40
2022-09-07T13:45:33.988Z,22.36
2022-09-07T13:48:57.774Z,22.35
2022-09-07T13:51:55.299Z,22.37
2022-09-07T13:54:49.278Z,22.40
2022-09-07T13:57:46.226Z,22.43
2022-09-07T14:00:29.004Z,22.42
2022-09-07T14:03:16.497Z,22.41
2022-09-07T14:06:14.853Z,22.41
2022-09-07T14:09:15.246Z,22.43
2022-09-07T14:11:56.977Z,22.46
2022-09-07T14:14:38.765Z,22.45
2022-09-07T14:17:20.669Z,22.46
2022-09-07T14:20:03.072Z,22.45
2022-09-07T14:22:48.356Z,22.44
2022-09-07T14:26:16.156Z,22.43
2022-09-07T14:28:40.722Z,22.42
2022-09-07T14:31:26.234Z,22.41
2022-09-07T14:34:08.900Z,22.38
2022-09-07T14:36:51.512Z,22.33
2022-09-07T14:39:38.225Z,22.29
2022-09-07T14:42:24.742Z,22.26
2022-09-07T14:45:18.523Z,22.24
2022-09-07T14:48:00.394Z,22.24
2022-09-07T14:50:57.091Z,22.21
2022-09-07T14:53:51.117Z,22.19
2022-09-07T14:56:40.902Z,22.19
2022-09-07T14:59:44.998Z,22.17
2022-09-07T15:02:34.193Z,22.11
2022-09-07T15:05:22.722Z,22.08
2022-09-07T15:08:04.628Z,22.06
2022-09-07T15:11:32.921Z,22.05
2022-09-07T15:14:09.900Z,22.02
2022-09-07T15:20:37.273Z,21.96
2022-09-07T15:23:19.680Z,21.92
2022-09-07T15:26:02.239Z,21.89
2022-09-07T15:31:59.351Z,21.85
2022-09-07T15:34:44.040Z,21.84
2022-09-07T15:40:29.937Z,21.82
2022-09-07T15:43:20.073Z,21.78
2022-09-07T15:46:03.715Z,21.75
2022-09-07T15:48:54.997Z,21.72
2022-09-07T15:54:39.884Z,21.63
2022-09-07T16:00:24.236Z,21.52
2022-09-07T16:03:07.471Z,21.47
2022-09-07T16:05:50.201Z,21.42
2022-09-07T16:08:34.941Z,21.38
2022-09-07T16:11:24.268Z,21.32
2022-09-07T16:14:06.105Z,21.28
2022-09-07T16:19:49.866Z,21.20
2022-09-07T16:25:35.156Z,21.12
2022-09-07T16:28:18.238Z,21.09
2022-09-07T16:31:07.949Z,21.07
2022-09-07T16:33:50.675Z,21.04
2022-09-07T16:36:32.573Z,21.00
2022-09-07T16:39:16.252Z,20.97
2022-09-07T16:42:00.184Z,20.93
2022-09-07T16:44:45.539Z,20.89
2022-09-07T16:47:30.946Z,20.84
2022-09-07T16:50:21.587Z,20.79
2022-09-07T16:53:04.766Z,20.75
2022-09-07T16:55:47.781Z,20.71
2022-09-07T16:58:35.912Z,20.66
2022-09-07T17:01:31.004Z,20.62
2022-09-07T17:04:33.110Z,20.56
2022-09-07T17:07:26.720Z,20.49
2022-09-07T17:10:09.469Z,20.43
2022-09-07T17:12:53.822Z,20.35
2022-09-07T17:15:40.092Z,20.29
2022-09-07T17:22:20.295Z,20.17
2022-09-07T17:25:17.727Z,20.07
2022-09-07T17:28:19.028Z,20.01
2022-09-07T17:34:36.203Z,19.81
2022-09-07T17:37:26.644Z,19.75
2022-09-07T17:40:10.549Z,19.69
2022-09-07T17:46:06.267Z,19.58
2022-09-07T17:49:02.813Z,19.53
2022-09-07T17:51:46.880Z,19.48
2022-09-07T17:54:29.756Z,19.44
2022-09-07T17:57:14.074Z,19.39
2022-09-07T18:00:16.604Z,19.33
2022-09-07T18:02:59.901Z,19.27
2022-09-07T18:05:42.198Z,19.21
2022-09-07T18:08:24.195Z,19.16
2022-09-07T18:14:19.376Z,19.02
2022-09-07T18:17:01.319Z,18.97
2022-09-07T18:19:43.317Z,18.91
2022-09-07T18:22:25.112Z,18.85
2022-09-07T18:25:10.149Z,18.79
2022-09-07T18:30:53.940Z,18.69
2022-09-07T18:33:36.552Z,18.64
2022-09-07T18:36:18.449Z,18.60
2022-09-07T18:39:04.887Z,18.57
2022-09-07T18:41:46.951Z,18.54
2022-09-07T18:47:33.987Z,18.48
2022-09-07T18:50:17.134Z,18.45
2022-09-07T18:53:10.611Z,18.43
2022-09-07T18:56:03.021Z,18.41
2022-09-07T18:58:45.744Z,18.38
2022-09-07T19:01:29.042Z,18.36
2022-09-07T19:04:10.964Z,18.34
2022-09-07T19:06:52.858Z,18.32
2022-09-07T19:09:34.855Z,18.32
2022-09-07T19:12:17.160Z,18.29
2022-09-07T19:14:59.159Z,18.25
2022-09-07T19:17:41.155Z,18.23
2022-09-07T19:20:23.257Z,18.20
2022-09-07T19:23:05.868Z,18.15
2022-09-07T19:25:48.073Z,18.11
2022-09-07T19:28:30.684Z,18.08
2022-09-07T19:31:12.528Z,18.05
2022-09-07T19:33:58.146Z,18.02
2022-09-07T19:36:40.327Z,17.99
2022-09-07T19:39:22.160Z,17.95
2022-09-07T19:42:06.238Z,17.92
2022-09-07T19:44:50.151Z,17.89
2022-09-07T19:47:31.968Z,17.87
2022-09-07T19:50:14.155Z,17.85
2022-09-07T19:52:56.294Z,17.83
2022-09-07T19:55:38.141Z,17.82
2022-09-07T19:58:19.934Z,17.81
2022-09-07T20:01:20.719Z,17.77
2022-09-07T20:04:05.198Z,17.75
2022-09-07T20:06:50.108Z,17.72
2022-09-07T20:09:32.506Z,17.71
2022-09-07T20:12:14.398Z,17.68
2022-09-07T20:14:56.648Z,17.66
2022-09-07T20:17:38.807Z,17.62
2022-09-07T20:20:21.519Z,17.58
2022-09-07T20:23:03.314Z,17.55
2022-09-07T20:25:45.309Z,17.52
2022-09-07T20:28:27.206Z,17.49
2022-09-07T20:31:12.441Z,17.46
2022-09-07T20:33:55.213Z,17.42
2022-09-07T20:36:37.400Z,17.38
2022-09-07T20:39:19.483Z,17.35
2022-09-07T20:42:01.296Z,17.31
2022-09-07T20:44:43.087Z,17.27
2022-09-07T20:47:24.799Z,17.24
2022-09-07T20:50:06.877Z,17.21
2022-09-07T20:52:49.226Z,17.17
2022-09-07T20:55:31.995Z,17.14
2022-09-07T20:58:28.342Z,17.10
2022-09-07T21:01:13.065Z,17.05
2022-09-07T21:03:58.235Z,17.00
2022-09-07T21:06:40.166Z,16.95
2022-09-07T21:09:22.368Z,16.91
2022-09-07T21:12:04.477Z,16.87
2022-09-07T21:14:46.980Z,16.83
2022-09-07T21:17:28.799Z,16.78
2022-09-07T21:20:10.586Z,16.73
2022-09-07T21:22:52.832Z,16.70
2022-09-07T21:25:34.564Z,16.67
2022-09-07T21:28:16.868Z,16.63
2022-09-07T21:31:09.220Z,16.60
2022-09-07T21:33:56.373Z,16.57
2022-09-07T21:36:38.425Z,16.54
2022-09-07T21:39:21.680Z,16.50
2022-09-07T21:42:04.676Z,16.46
2022-09-07T21:44:46.469Z,16.43
2022-09-07T21:47:28.364Z,16.41
2022-09-07T21:50:10.111Z,16.38
2022-09-07T21:52:51.850Z,16.35
2022-09-07T21:55:34.256Z,16.32
2022-09-07T21:58:16.048Z,16.30
2022-09-07T22:01:00.870Z,16.28
2022-09-07T22:03:45.681Z,16.26
2022-09-07T22:06:28.293Z,16.24
2022-09-07T22:09:10.083Z,16.21
2022-09-07T22:11:52.593Z,16.20
2022-09-07T22:14:34.488Z,16.17
2022-09-07T22:17:16.290Z,16.15
2022-09-07T22:19:58.186Z,16.13
2022-09-07T22:22:39.970Z,16.11
2022-09-07T22:25:21.765Z,16.10
2022-09-07T22:28:04.173Z,16.08
2022-09-07T22:30:46.069Z,16.06
2022-09-07T22:33:27.798Z,16.07
2022-09-07T22:36:12.996Z,16.06
2022-09-07T22:38:57.239Z,16.04
2022-09-07T22:41:40.920Z,16.03
2022-09-07T22:44:22.918Z,16.02
2022-09-07T22:47:04.916Z,16.02
2022-09-07T22:49:46.710Z,16.01
2022-09-07T22:52:28.426Z,15.99
2022-09-07T22:55:10.270Z,15.98
2022-09-07T22:57:52.013Z,15.96
2022-09-07T23:00:36.385Z,15.96
2022-09-07T23:03:18.392Z,15.96
2022-09-07T23:06:03.311Z,15.95
2022-09-07T23:08:45.099Z,15.95
2022-09-07T23:11:27.818Z,15.94
2022-09-07T23:14:15.997Z,15.93
2022-09-07T23:16:58.845Z,15.90
2022-09-07T23:19:40.569Z,15.88
2022-09-07T23:22:22.360Z,15.86
2022-09-07T23:25:04.666Z,15.84
2022-09-07T23:27:46.460Z,15.79
2022-09-07T23:30:28.252Z,15.75
2022-09-07T23:33:10.045Z,15.72
2022-09-07T23:36:03.717Z,15.69
2022-09-07T23:38:46.537Z,15.65
2022-09-07T23:41:29.147Z,15.63
2022-09-07T23:44:11.247Z,15.60
2022-09-07T23:46:53.104Z,15.59
2022-09-07T23:49:34.945Z,15.57
2022-09-07T23:52:16.730Z,15.56
2022-09-07T23:54:58.524Z,15.55
2022-09-07T23:57:40.420Z,15.54
